Gaz Unity — HOEJ — position and weather

sailwx.info

Track history (hours):
 
Tides and Currents Weather Stations Pressure Air Temp Water Temp Dewpoint Dewpoint Depression Visibility Wind Speed Wind Dir Waves Ship Positions

Gaz Unity

Last reported at 2015-May-30 05:33 UTC. Time now 2015-May-30 06:26 UTC.
Position N 35°29' E 014°59'.

Length 228 m; draft 10.3 m.

Type: Ship (hazmat cat C). MMSI: 353956000.

Date/timePositionNaut miles runAvg speedWind from/ knotsBaromVisibWave heightAir tempDewpointWater temp
2015-May-30 05:33N 35°29' E 014°59'2 1.6
2015-May-30 04:30N 35°29' E 014°56'0 0.2
2015-May-30 03:33N 35°29' E 014°57'0 0.3
2015-May-30 02:32N 35°29' E 014°57'0 0.4
2015-May-30 01:33N 35°29' E 014°57'0 0.4
2015-May-30 00:33N 35°30' E 014°57'1 0.5
2015-May-29 23:18N 35°30' E 014°57'0 0.6
2015-May-29 22:31N 35°31' E 014°57'1 0.6
2015-May-29 21:32N 35°31' E 014°56'1 0.7
2015-May-29 20:33N 35°32' E 014°56'1 0.5
2015-May-29 19:33N 35°32' E 014°56'1 0.6
2015-May-29 18:32N 35°33' E 014°56'1 0.7
2015-May-29 17:33N 35°33' E 014°55'1 0.8
2015-May-29 16:33N 35°32' E 014°55'5 4.7
2015-May-29 15:32N 35°32' E 015°01'5 4.5
2015-May-29 14:32N 35°33' E 015°07'1 0.5
2015-May-29 13:32N 35°33' E 015°07'1 0.6
2015-May-29 12:26N 35°34' E 015°06'1 0.6
2015-May-29 10:24N 35°34' E 015°04'17 1.0
2015-May-28 16:22N 35°35' E 014°43'9 0.4
2015-May-27 20:32N 35°29' E 014°36'2 1.7
2015-May-27 19:24N 35°29' E 014°33'2 1.7
2015-May-27 18:12N 35°30' E 014°31'1 1.7
2015-May-27 17:31N 35°30' E 014°30'2 1.7
2015-May-27 16:33N 35°31' E 014°28'2 1.7
2015-May-27 15:33N 35°32' E 014°26'2 1.8
2015-May-27 14:33N 35°33' E 014°24'2 1.7
2015-May-27 13:33N 35°35' E 014°23'2 1.7
2015-May-27 12:33N 35°36' E 014°22'3 2.6
2015-May-27 11:33N 35°36' E 014°25'48 1.6
2015-May-26 05:33N 35°31' E 015°23'0 0.3
2015-May-26 04:09N 35°31' E 015°24'1 0.3
2015-May-26 02:16N 35°31' E 015°24'0 0.4
2015-May-26 01:32N 35°31' E 015°25'1 0.4
2015-May-26 00:13N 35°31' E 015°25'0 0.5
2015-May-25 23:33N 35°32' E 015°26'1 0.5
2015-May-25 22:24N 35°32' E 015°26'0 0.4
2015-May-25 21:33N 35°32' E 015°26'1 0.3
2015-May-25 18:05N 35°33' E 015°27'0 0.4
2015-May-25 17:29N 35°33' E 015°27'0 0.4
2015-May-25 16:33N 35°34' E 015°27'2 0.6
2015-May-25 13:17N 35°35' E 015°25'34 0.8
2015-May-23 17:26N 35°41' E 014°44'5 5.6
2015-May-23 16:33N 35°46' E 014°43'1 1.5
2015-May-23 15:33N 35°46' E 014°41'1 1.4
2015-May-23 14:32N 35°46' E 014°39'1 1.1
2015-May-23 13:33N 35°46' E 014°38'8 7.6
2015-May-23 12:33N 35°52' E 014°44'4 4.4
2015-May-23 11:33N 35°56' E 014°44'1 1.1
2015-May-23 10:33N 35°57' E 014°42'1 0.9
2015-May-23 09:33N 35°57' E 014°41'1 0.6
2015-May-23 08:32N 35°57' E 014°41'5 4.9
2015-May-23 07:33N 35°53' E 014°43'7 7.3
2015-May-23 06:32N 35°46' E 014°45'15 1.2
2015-May-22 17:21N 35°40' E 015°03'10 0.4
2015-May-21 12:33N 35°33' E 015°12'1 1.3
2015-May-21 11:32N 35°32' E 015°14'1 1.3
2015-May-21 10:33N 35°32' E 015°15'1 0.9
2015-May-21 09:33N 35°32' E 015°16'1 0.9
2015-May-21 08:33N 35°33' E 015°16'1 0.8
2015-May-21 07:33N 35°34' E 015°16'3 3.2
2015-May-21 06:33N 35°33' E 015°13'5 4.8
2015-May-21 05:33N 35°29' E 015°09'0 0.4
2015-May-21 04:33N 35°29' E 015°08'1 0.6
2015-May-21 03:33N 35°29' E 015°07'1 0.8
2015-May-21 02:33N 35°28' E 015°07'1 0.8
2015-May-21 01:33N 35°28' E 015°07'1 0.8
2015-May-21 00:33N 35°27' E 015°06'1 0.9
2015-May-20 23:33N 35°26' E 015°06'1 0.9
2015-May-20 22:33N 35°25' E 015°06'1 0.8
2015-May-20 21:33N 35°24' E 015°06'1 0.8
2015-May-20 20:33N 35°23' E 015°06'1 0.8
2015-May-20 19:33N 35°23' E 015°06'1 0.7
2015-May-20 18:33N 35°22' E 015°06'1 0.6
2015-May-20 17:33N 35°21' E 015°06'1 0.5
2015-May-20 16:33N 35°21' E 015°06'0 0.5
2015-May-20 15:33N 35°20' E 015°06'0 0.5
2015-May-20 14:33N 35°20' E 015°06'0 0.4
2015-May-20 13:33N 35°19' E 015°07'0 0.4
2015-May-20 12:33N 35°19' E 015°07'0 0.4
2015-May-20 11:33N 35°19' E 015°06'0 0.4
2015-May-20 10:33N 35°18' E 015°06'0 0.5
2015-May-20 09:33N 35°18' E 015°06'1 0.6
2015-May-20 08:33N 35°17' E 015°06'1 0.8
2015-May-20 07:33N 35°17' E 015°05'1 0.9
2015-May-20 06:33N 35°16' E 015°05'  
Track history (hours):
 
Tides and Currents Weather Stations Pressure Air Temp Water Temp Dewpoint Dewpoint Depression Visibility Wind Speed Wind Dir Waves Ship Positions

Gaz Unity

Last reported at 2015-May-30 05:33 UTC. Time now 2015-May-30 06:26 UTC.
Position N 35°29' E 014°59'.

Length 228 m; draft 10.3 m.

Type: Ship (hazmat cat C). MMSI: 353956000.

Date/timePositionNaut miles runAvg speedWind from/ knotsBaromVisibWave heightAir tempDewpointWater temp
2015-May-30 05:33N 35°29' E 014°59'2 1.6
2015-May-30 04:30N 35°29' E 014°56'0 0.2
2015-May-30 03:33N 35°29' E 014°57'0 0.3
2015-May-30 02:32N 35°29' E 014°57'0 0.4
2015-May-30 01:33N 35°29' E 014°57'0 0.4
2015-May-30 00:33N 35°30' E 014°57'1 0.5
2015-May-29 23:18N 35°30' E 014°57'0 0.6
2015-May-29 22:31N 35°31' E 014°57'1 0.6
2015-May-29 21:32N 35°31' E 014°56'1 0.7
2015-May-29 20:33N 35°32' E 014°56'1 0.5
2015-May-29 19:33N 35°32' E 014°56'1 0.6
2015-May-29 18:32N 35°33' E 014°56'1 0.7
2015-May-29 17:33N 35°33' E 014°55'1 0.8
2015-May-29 16:33N 35°32' E 014°55'5 4.7
2015-May-29 15:32N 35°32' E 015°01'5 4.5
2015-May-29 14:32N 35°33' E 015°07'1 0.5
2015-May-29 13:32N 35°33' E 015°07'1 0.6
2015-May-29 12:26N 35°34' E 015°06'1 0.6
2015-May-29 10:24N 35°34' E 015°04'17 1.0
2015-May-28 16:22N 35°35' E 014°43'9 0.4
2015-May-27 20:32N 35°29' E 014°36'2 1.7
2015-May-27 19:24N 35°29' E 014°33'2 1.7
2015-May-27 18:12N 35°30' E 014°31'1 1.7
2015-May-27 17:31N 35°30' E 014°30'2 1.7
2015-May-27 16:33N 35°31' E 014°28'2 1.7
2015-May-27 15:33N 35°32' E 014°26'2 1.8
2015-May-27 14:33N 35°33' E 014°24'2 1.7
2015-May-27 13:33N 35°35' E 014°23'2 1.7
2015-May-27 12:33N 35°36' E 014°22'3 2.6
2015-May-27 11:33N 35°36' E 014°25'48 1.6
2015-May-26 05:33N 35°31' E 015°23'0 0.3
2015-May-26 04:09N 35°31' E 015°24'1 0.3
2015-May-26 02:16N 35°31' E 015°24'0 0.4
2015-May-26 01:32N 35°31' E 015°25'1 0.4
2015-May-26 00:13N 35°31' E 015°25'0 0.5
2015-May-25 23:33N 35°32' E 015°26'1 0.5
2015-May-25 22:24N 35°32' E 015°26'0 0.4
2015-May-25 21:33N 35°32' E 015°26'1 0.3
2015-May-25 18:05N 35°33' E 015°27'0 0.4
2015-May-25 17:29N 35°33' E 015°27'0 0.4
2015-May-25 16:33N 35°34' E 015°27'2 0.6
2015-May-25 13:17N 35°35' E 015°25'34 0.8
2015-May-23 17:26N 35°41' E 014°44'5 5.6
2015-May-23 16:33N 35°46' E 014°43'1 1.5
2015-May-23 15:33N 35°46' E 014°41'1 1.4
2015-May-23 14:32N 35°46' E 014°39'1 1.1
2015-May-23 13:33N 35°46' E 014°38'8 7.6
2015-May-23 12:33N 35°52' E 014°44'4 4.4
2015-May-23 11:33N 35°56' E 014°44'1 1.1
2015-May-23 10:33N 35°57' E 014°42'1 0.9
2015-May-23 09:33N 35°57' E 014°41'1 0.6
2015-May-23 08:32N 35°57' E 014°41'5 4.9
2015-May-23 07:33N 35°53' E 014°43'7 7.3
2015-May-23 06:32N 35°46' E 014°45'15 1.2
2015-May-22 17:21N 35°40' E 015°03'10 0.4
2015-May-21 12:33N 35°33' E 015°12'1 1.3
2015-May-21 11:32N 35°32' E 015°14'1 1.3
2015-May-21 10:33N 35°32' E 015°15'1 0.9
2015-May-21 09:33N 35°32' E 015°16'1 0.9
2015-May-21 08:33N 35°33' E 015°16'1 0.8
2015-May-21 07:33N 35°34' E 015°16'3 3.2
2015-May-21 06:33N 35°33' E 015°13'5 4.8
2015-May-21 05:33N 35°29' E 015°09'0 0.4
2015-May-21 04:33N 35°29' E 015°08'1 0.6
2015-May-21 03:33N 35°29' E 015°07'1 0.8
2015-May-21 02:33N 35°28' E 015°07'1 0.8
2015-May-21 01:33N 35°28' E 015°07'1 0.8
2015-May-21 00:33N 35°27' E 015°06'1 0.9
2015-May-20 23:33N 35°26' E 015°06'1 0.9
2015-May-20 22:33N 35°25' E 015°06'1 0.8
2015-May-20 21:33N 35°24' E 015°06'1 0.8
2015-May-20 20:33N 35°23' E 015°06'1 0.8
2015-May-20 19:33N 35°23' E 015°06'1 0.7
2015-May-20 18:33N 35°22' E 015°06'1 0.6
2015-May-20 17:33N 35°21' E 015°06'1 0.5
2015-May-20 16:33N 35°21' E 015°06'0 0.5
2015-May-20 15:33N 35°20' E 015°06'0 0.5
2015-May-20 14:33N 35°20' E 015°06'0 0.4
2015-May-20 13:33N 35°19' E 015°07'0 0.4
2015-May-20 12:33N 35°19' E 015°07'0 0.4
2015-May-20 11:33N 35°19' E 015°06'0 0.4
2015-May-20 10:33N 35°18' E 015°06'0 0.5
2015-May-20 09:33N 35°18' E 015°06'1 0.6
2015-May-20 08:33N 35°17' E 015°06'1 0.8
2015-May-20 07:33N 35°17' E 015°05'1 0.9
2015-May-20 06:33N 35°16' E 015°05'  

Dump ship's entire track history